createdAt,value
2018-04-28T00:00:56.523Z,84.72
2018-04-28T00:01:56.761Z,84.14
2018-04-28T00:02:56.997Z,83.58
2018-04-28T00:03:57.236Z,82.81
2018-04-28T00:04:57.474Z,82.53
2018-04-28T00:05:57.713Z,82.43
2018-04-28T00:06:57.949Z,82.81
2018-04-28T00:07:58.246Z,82.05
2018-04-28T00:08:58.426Z,82.34
2018-04-28T00:09:58.663Z,82.05
2018-04-28T00:10:58.902Z,82.34
2018-04-28T00:11:59.140Z,82.81
2018-04-28T00:12:59.379Z,83.48
2018-04-28T00:13:59.615Z,83.19
2018-04-28T00:14:59.860Z,82.91
2018-04-28T00:16:00.093Z,83.29
2018-04-28T00:17:00.331Z,83.95
2018-04-28T00:18:00.570Z,83.76
2018-04-28T00:19:00.807Z,84.52
2018-04-28T00:20:01.046Z,84.05
2018-04-28T00:21:01.281Z,84.62
2018-04-28T00:22:01.523Z,84.05
2018-04-28T00:23:01.761Z,83.86
2018-04-28T00:24:02.000Z,83.67
2018-04-28T00:25:02.239Z,83.58
2018-04-28T00:26:02.483Z,83.29
2018-04-28T00:27:02.716Z,83.29
2018-04-28T00:28:02.954Z,83.39
2018-04-28T00:29:03.192Z,82.71
2018-04-28T00:30:03.429Z,82.53
2018-04-28T00:31:03.670Z,82.43
2018-04-28T00:32:03.982Z,82.15
2018-04-28T00:33:04.148Z,82.43
2018-04-28T00:34:04.386Z,82.05
2018-04-28T00:35:04.625Z,82.05
2018-04-28T00:36:04.864Z,82.05
2018-04-28T00:37:05.099Z,82.34
2018-04-28T00:38:05.336Z,82.62
2018-04-28T00:39:05.578Z,82.91
2018-04-28T00:40:05.812Z,82.62
2018-04-28T00:41:06.048Z,82.81
2018-04-28T00:42:06.286Z,83.10
2018-04-28T00:43:06.525Z,83.29
2018-04-28T00:44:06.762Z,82.91
2018-04-28T00:45:07.000Z,83.29
2018-04-28T00:46:07.239Z,83.67
2018-04-28T00:47:07.475Z,83.86
2018-04-28T00:48:07.719Z,84.29
2018-04-28T00:49:07.952Z,84.10
2018-04-28T00:50:08.191Z,84.48
2018-04-28T00:51:08.438Z,84.29
2018-04-28T00:52:08.667Z,84.95
2018-04-28T00:53:08.905Z,84.95
2018-04-28T00:54:09.143Z,84.86
2018-04-28T00:55:09.381Z,84.95
2018-04-28T00:56:09.618Z,84.48
2018-04-28T00:57:09.855Z,84.95
2018-04-28T00:58:10.094Z,84.39
2018-04-28T00:59:10.332Z,83.86
2018-04-28T01:00:10.572Z,83.39
2018-04-28T01:01:10.809Z,82.43
2018-04-28T01:02:11.058Z,82.34
2018-04-28T01:03:11.289Z,82.62
2018-04-28T01:04:11.523Z,81.96
2018-04-28T01:05:11.763Z,82.62
2018-04-28T01:06:12.001Z,82.71
2018-04-28T01:07:12.238Z,81.96
2018-04-28T01:08:12.477Z,82.53
2018-04-28T01:09:12.779Z,82.62
2018-04-28T01:10:12.953Z,82.34
2018-04-28T01:11:13.190Z,82.43
2018-04-28T01:12:13.429Z,83.19
2018-04-28T01:13:13.666Z,82.62
2018-04-28T01:14:13.902Z,82.91
2018-04-28T01:15:14.141Z,83.10
2018-04-28T01:16:14.384Z,83.39
2018-04-28T01:17:14.617Z,82.91
2018-04-28T01:18:14.857Z,82.81
2018-04-28T01:19:15.096Z,83.25
2018-04-28T01:20:15.338Z,83.34
2018-04-28T01:21:15.571Z,84.29
2018-04-28T01:22:15.810Z,84.20
2018-04-28T01:23:16.049Z,84.10
2018-04-28T01:24:16.286Z,83.95
2018-04-28T01:25:16.527Z,83.58
2018-04-28T01:26:16.764Z,83.72
2018-04-28T01:27:17.006Z,84.01
2018-04-28T01:28:17.243Z,84.05
2018-04-28T01:29:17.482Z,83.67
2018-04-28T01:30:17.720Z,83.67
2018-04-28T01:31:17.958Z,83.10
2018-04-28T01:32:18.196Z,83.10
2018-04-28T01:33:18.434Z,82.62
2018-04-28T01:34:18.672Z,82.71
2018-04-28T01:35:18.909Z,82.43
2018-04-28T01:36:19.146Z,82.62
2018-04-28T01:37:19.383Z,82.71
2018-04-28T01:38:19.620Z,81.48
2018-04-28T01:39:19.859Z,81.77
2018-04-28T01:40:20.098Z,81.96
2018-04-28T01:41:20.338Z,81.77
2018-04-28T01:42:20.573Z,81.20
2018-04-28T01:43:20.812Z,81.58
2018-04-28T01:44:21.051Z,81.77
2018-04-28T01:45:21.289Z,81.67
2018-04-28T01:46:21.527Z,81.33
2018-04-28T01:47:21.764Z,81.71
2018-04-28T01:48:22.001Z,80.95
2018-04-28T01:49:22.240Z,81.48
2018-04-28T01:50:22.477Z,81.58
2018-04-28T01:51:22.717Z,81.52
2018-04-28T01:52:22.955Z,81.05
2018-04-28T01:53:23.192Z,80.76
2018-04-28T01:54:23.431Z,80.76
2018-04-28T01:55:23.664Z,81.05
2018-04-28T01:56:23.901Z,80.38
2018-04-28T01:57:24.222Z,80.10
2018-04-28T01:58:24.377Z,79.91
2018-04-28T01:59:24.614Z,79.91
2018-04-28T02:00:24.852Z,80.29
2018-04-28T02:01:25.093Z,81.24
2018-04-28T02:02:25.330Z,80.76
2018-04-28T02:03:25.576Z,81.01
2018-04-28T02:04:25.807Z,81.48
2018-04-28T02:05:26.046Z,81.10
2018-04-28T02:06:26.285Z,82.00
2018-04-28T02:07:26.520Z,81.33
2018-04-28T02:08:26.763Z,81.05
2018-04-28T02:09:26.995Z,80.66
2018-04-28T02:10:27.233Z,80.29
2018-04-28T02:11:27.472Z,80.10
2018-04-28T02:12:27.710Z,79.81
2018-04-28T02:13:27.947Z,79.81
2018-04-28T02:14:28.187Z,79.91
2018-04-28T02:15:28.425Z,80.00
2018-04-28T02:16:28.660Z,79.72
2018-04-28T02:17:28.899Z,80.66
2018-04-28T02:18:29.136Z,80.66
2018-04-28T02:19:29.376Z,81.05
2018-04-28T02:20:29.614Z,80.95
2018-04-28T02:21:29.852Z,81.52
2018-04-28T02:22:30.091Z,81.38
2018-04-28T02:23:30.328Z,81.96
2018-04-28T02:24:30.566Z,81.77
2018-04-28T02:25:30.804Z,81.77
2018-04-28T02:26:31.042Z,81.67
2018-04-28T02:27:31.279Z,81.96
2018-04-28T02:28:31.516Z,82.43
2018-04-28T02:29:31.832Z,82.62
2018-04-28T02:30:31.994Z,82.53
2018-04-28T02:31:32.233Z,82.15
2018-04-28T02:32:32.471Z,82.24
2018-04-28T02:33:32.710Z,82.05
2018-04-28T02:34:32.947Z,82.62
2018-04-28T02:35:33.185Z,82.53
2018-04-28T02:36:33.422Z,82.34
2018-04-28T02:37:33.661Z,83.00
2018-04-28T02:38:33.898Z,82.24
2018-04-28T02:39:34.140Z,82.53
2018-04-28T02:40:34.375Z,82.81
2018-04-28T02:41:34.611Z,83.39
2018-04-28T02:42:34.849Z,83.10
2018-04-28T02:43:35.091Z,83.86
2018-04-28T02:44:35.328Z,83.48
2018-04-28T02:45:35.564Z,83.95
2018-04-28T02:46:35.803Z,83.58
2018-04-28T02:47:36.042Z,82.57
2018-04-28T02:48:36.285Z,82.48
2018-04-28T02:49:36.529Z,81.90
2018-04-28T02:50:36.760Z,81.05
2018-04-28T02:51:37.000Z,81.14
2018-04-28T02:52:37.237Z,80.95
2018-04-28T02:53:37.473Z,80.86
2018-04-28T02:54:37.712Z,80.76
2018-04-28T02:55:37.952Z,81.05
2018-04-28T02:56:38.189Z,81.81
2018-04-28T02:57:38.426Z,81.71
2018-04-28T02:58:38.666Z,81.43
2018-04-28T02:59:38.904Z,81.71
2018-04-28T03:00:39.139Z,81.81
2018-04-28T03:01:39.375Z,82.05
2018-04-28T03:02:39.618Z,81.81
2018-04-28T03:03:39.853Z,81.52
2018-04-28T03:04:40.092Z,81.43
2018-04-28T03:05:40.330Z,81.81
2018-04-28T03:06:40.569Z,82.53
2018-04-28T03:07:40.808Z,82.15
2018-04-28T03:08:41.045Z,82.62
2018-04-28T03:09:41.283Z,82.62
2018-04-28T03:10:41.519Z,82.91
2018-04-28T03:11:41.756Z,83.10
2018-04-28T03:12:41.993Z,84.29
2018-04-28T03:13:42.227Z,84.48
2018-04-28T03:14:42.464Z,84.20
2018-04-28T03:15:42.701Z,84.10
2018-04-28T03:16:42.940Z,84.33
2018-04-28T03:17:43.178Z,83.58
2018-04-28T03:18:43.421Z,83.95
2018-04-28T03:19:43.654Z,83.19
2018-04-28T03:20:43.893Z,82.91
2018-04-28T03:21:44.131Z,82.24
2018-04-28T03:22:44.369Z,82.71
2018-04-28T03:23:44.608Z,82.57
2018-04-28T03:24:44.845Z,81.71
2018-04-28T03:25:45.082Z,81.81
2018-04-28T03:26:45.320Z,82.19
2018-04-28T03:27:45.557Z,82.43
2018-04-28T03:28:45.798Z,82.67
2018-04-28T03:29:46.033Z,81.81
2018-04-28T03:30:46.269Z,81.62
2018-04-28T03:31:46.509Z,81.81
2018-04-28T03:32:46.748Z,81.81
2018-04-28T03:33:46.985Z,81.43
2018-04-28T03:34:47.235Z,82.00
2018-04-28T03:35:47.461Z,82.57
2018-04-28T03:36:47.699Z,82.38
2018-04-28T03:37:47.937Z,82.19
2018-04-28T03:38:48.175Z,82.57
2018-04-28T03:39:48.414Z,82.67
2018-04-28T03:40:48.651Z,82.57
2018-04-28T03:41:48.889Z,82.48
2018-04-28T03:42:49.125Z,82.05
2018-04-28T03:43:49.366Z,82.62
2018-04-28T03:44:49.600Z,83.39
2018-04-28T03:45:49.841Z,83.10
2018-04-28T03:46:50.080Z,83.29
2018-04-28T03:47:50.320Z,83.53
2018-04-28T03:48:50.557Z,84.48
2018-04-28T03:49:50.797Z,84.95
2018-04-28T03:50:51.034Z,85.72
2018-04-28T03:51:51.274Z,85.91
2018-04-28T03:52:51.510Z,86.57
2018-04-28T03:53:51.749Z,86.29
2018-04-28T03:54:51.987Z,86.57
2018-04-28T03:55:52.227Z,86.76
2018-04-28T03:56:52.466Z,87.19
2018-04-28T03:57:52.703Z,87.67
2018-04-28T03:58:52.944Z,87.38
2018-04-28T03:59:53.181Z,87.90
2018-04-28T04:00:53.421Z,87.76
2018-04-28T04:01:53.656Z,87.71
2018-04-28T04:02:53.894Z,87.90
2018-04-28T04:03:54.140Z,87.90
2018-04-28T04:04:54.375Z,87.05
2018-04-28T04:05:54.616Z,87.52
2018-04-28T04:06:54.857Z,87.14
2018-04-28T04:07:55.097Z,87.24
2018-04-28T04:08:55.336Z,87.05
2018-04-28T04:09:55.577Z,87.14
2018-04-28T04:10:55.813Z,87.71
2018-04-28T04:11:56.051Z,87.62
2018-04-28T04:12:56.290Z,87.24
2018-04-28T04:13:56.530Z,87.43
2018-04-28T04:14:56.768Z,87.81
2018-04-28T04:15:57.007Z,88.00
2018-04-28T04:16:57.249Z,87.62
2018-04-28T04:17:57.485Z,87.43
2018-04-28T04:18:57.724Z,87.62
2018-04-28T04:19:57.966Z,87.34
2018-04-28T04:20:58.208Z,87.43
2018-04-28T04:21:58.442Z,87.14
2018-04-28T04:22:58.683Z,87.62
2018-04-28T04:23:58.921Z,88.00
2018-04-28T04:24:59.163Z,87.90
2018-04-28T04:25:59.398Z,88.00
2018-04-28T04:26:59.634Z,87.90
2018-04-28T04:27:59.877Z,87.24
2018-04-28T04:29:00.114Z,87.62
2018-04-28T04:30:00.350Z,87.47
2018-04-28T04:31:00.589Z,86.90
2018-04-28T04:32:00.889Z,87.38
2018-04-28T04:33:01.066Z,86.90
2018-04-28T04:34:01.304Z,87.47
2018-04-28T04:35:01.555Z,87.47
2018-04-28T04:36:01.781Z,87.38
2018-04-28T04:37:02.022Z,87.47
2018-04-28T04:38:02.259Z,87.47
2018-04-28T04:39:02.497Z,87.38
2018-04-28T04:40:02.737Z,87.24
2018-04-28T04:41:02.975Z,87.28
2018-04-28T04:42:03.217Z,87.62
2018-04-28T04:43:03.453Z,87.52
2018-04-28T04:44:03.692Z,87.62
2018-04-28T04:45:03.930Z,88.00
2018-04-28T04:46:04.167Z,88.09
2018-04-28T04:47:04.409Z,88.00
2018-04-28T04:48:04.642Z,88.19
2018-04-28T04:49:04.884Z,87.81
2018-04-28T04:50:05.124Z,87.81
2018-04-28T04:51:05.362Z,87.90
2018-04-28T04:52:05.605Z,87.95
2018-04-28T04:53:05.841Z,87.47
2018-04-28T04:54:06.083Z,87.28
2018-04-28T04:55:06.323Z,87.28
2018-04-28T04:56:06.562Z,87.43
2018-04-28T04:57:06.800Z,88.28
2018-04-28T04:58:07.042Z,88.00
2018-04-28T04:59:07.276Z,88.00
2018-04-28T05:00:07.512Z,87.90
2018-04-28T05:01:07.749Z,88.04
2018-04-28T05:02:07.984Z,88.23
2018-04-28T05:03:08.231Z,88.23
2018-04-28T05:04:08.464Z,87.57
2018-04-28T05:05:08.703Z,87.85
2018-04-28T05:06:08.946Z,87.28
2018-04-28T05:07:09.181Z,86.38
2018-04-28T05:08:09.419Z,85.61
2018-04-28T05:09:09.659Z,84.70
2018-04-28T05:10:09.895Z,84.42
2018-04-28T05:11:10.134Z,83.85
2018-04-28T05:12:10.378Z,83.37
2018-04-28T05:13:10.616Z,82.61
2018-04-28T05:14:10.855Z,82.61
2018-04-28T05:15:11.092Z,82.99
2018-04-28T05:16:11.330Z,83.85
2018-04-28T05:17:11.571Z,84.42
2018-04-28T05:18:11.813Z,84.13
2018-04-28T05:19:12.059Z,84.80
2018-04-28T05:20:12.287Z,85.08
2018-04-28T05:21:12.527Z,84.61
2018-04-28T05:22:12.766Z,84.13
2018-04-28T05:23:13.001Z,84.70
2018-04-28T05:24:13.243Z,85.28
2018-04-28T05:25:13.482Z,85.28
2018-04-28T05:26:13.722Z,85.56
2018-04-28T05:27:13.959Z,85.66
2018-04-28T05:28:14.198Z,86.04
2018-04-28T05:29:14.437Z,85.47
2018-04-28T05:30:14.676Z,85.75
2018-04-28T05:31:14.912Z,85.51
2018-04-28T05:32:15.154Z,84.17
2018-04-28T05:33:15.393Z,83.41
2018-04-28T05:34:15.629Z,82.56
2018-04-28T05:35:15.869Z,82.41
2018-04-28T05:36:16.110Z,81.93
2018-04-28T05:37:16.410Z,82.12
2018-04-28T05:38:16.662Z,81.55
2018-04-28T05:39:16.900Z,80.88
2018-04-28T05:40:17.140Z,81.07
2018-04-28T05:41:17.379Z,80.79
2018-04-28T05:42:17.618Z,80.64
2018-04-28T05:43:17.857Z,79.88
2018-04-28T05:44:18.097Z,79.97
2018-04-28T05:45:18.337Z,80.26
2018-04-28T05:46:18.577Z,80.16
2018-04-28T05:47:18.816Z,79.97
2018-04-28T05:48:19.062Z,79.40
2018-04-28T05:49:19.294Z,79.49
2018-04-28T05:50:19.533Z,78.73
2018-04-28T05:51:19.775Z,78.44
2018-04-28T05:52:20.014Z,78.54
2018-04-28T05:53:20.281Z,78.16
2018-04-28T05:54:20.523Z,77.97
2018-04-28T05:55:20.768Z,77.97
2018-04-28T05:56:21.001Z,78.10
2018-04-28T05:57:21.291Z,77.72
2018-04-28T05:58:21.538Z,77.62
2018-04-28T05:59:21.776Z,77.53
2018-04-28T06:00:22.015Z,77.34
2018-04-28T06:01:22.255Z,77.44
2018-04-28T06:02:22.496Z,77.62
2018-04-28T06:03:22.743Z,77.62
2018-04-28T06:04:22.976Z,77.53
2018-04-28T06:05:23.217Z,77.44
2018-04-28T06:06:23.457Z,76.67
2018-04-28T06:07:23.698Z,76.57
2018-04-28T06:08:23.937Z,76.57
2018-04-28T06:09:24.178Z,76.48
2018-04-28T06:10:24.422Z,76.01
2018-04-28T06:11:24.659Z,76.48
2018-04-28T06:12:24.900Z,76.20
2018-04-28T06:13:25.141Z,76.39
2018-04-28T06:14:25.393Z,76.29
2018-04-28T06:15:25.622Z,75.91
2018-04-28T06:16:25.865Z,76.20
2018-04-28T06:17:26.102Z,76.20
2018-04-28T06:18:26.342Z,75.72
2018-04-28T06:19:26.583Z,75.91
2018-04-28T06:20:26.825Z,76.20
2018-04-28T06:21:27.066Z,75.76
2018-04-28T06:22:27.308Z,74.71
2018-04-28T06:23:27.557Z,74.90
2018-04-28T06:24:27.791Z,75.09
2018-04-28T06:25:28.035Z,74.99
2018-04-28T06:26:28.278Z,75.28
2018-04-28T06:27:28.513Z,75.28
2018-04-28T06:28:28.751Z,74.99
2018-04-28T06:29:28.999Z,75.28
2018-04-28T06:30:29.236Z,74.90
2018-04-28T06:31:29.477Z,74.61
2018-04-28T06:32:29.720Z,74.23
2018-04-28T06:33:29.960Z,74.23
2018-04-28T06:34:30.195Z,74.23
2018-04-28T06:35:30.445Z,73.50
2018-04-28T06:36:30.670Z,73.60
2018-04-28T06:37:30.921Z,73.69
2018-04-28T06:38:31.147Z,73.60
2018-04-28T06:39:31.386Z,73.32
2018-04-28T06:40:31.630Z,72.93
2018-04-28T06:41:31.869Z,73.41
2018-04-28T06:42:32.108Z,72.07
2018-04-28T06:43:32.352Z,72.07
2018-04-28T06:44:32.580Z,71.53
2018-04-28T06:45:32.837Z,69.76
2018-04-28T06:46:33.056Z,66.96
2018-04-28T06:47:33.298Z,65.42
2018-04-28T06:48:33.539Z,64.05
2018-04-28T06:49:33.781Z,61.50
2018-04-28T06:50:34.025Z,60.03
2018-04-28T06:51:34.258Z,57.43
2018-04-28T06:52:34.510Z,56.67
2018-04-28T06:53:34.748Z,57.41
2018-04-28T06:54:34.989Z,58.81
2018-04-28T06:55:35.232Z,60.06
2018-04-28T06:56:35.479Z,60.03
2018-04-28T06:57:35.721Z,60.10
2018-04-28T06:58:36.025Z,61.15
2018-04-28T06:59:36.206Z,61.63
2018-04-28T07:00:36.446Z,60.70
2018-04-28T07:01:36.687Z,58.56
2018-04-28T07:02:36.929Z,56.64
2018-04-28T07:03:37.172Z,56.00
2018-04-28T07:04:37.472Z,54.88
2018-04-28T07:05:37.648Z,54.42
2018-04-28T07:06:37.887Z,53.82
2018-04-28T07:07:38.149Z,53.72
2018-04-28T07:08:38.364Z,53.53
2018-04-28T07:09:38.614Z,53.91
2018-04-28T07:10:38.847Z,53.91
2018-04-28T07:11:39.087Z,51.67
2018-04-28T07:12:39.334Z,50.01
2018-04-28T07:13:39.573Z,50.03
2018-04-28T07:14:39.801Z,49.72
2018-04-28T07:15:40.044Z,48.76
2018-04-28T07:16:40.300Z,48.28
2018-04-28T07:17:40.539Z,48.28
2018-04-28T07:18:40.772Z,47.99
2018-04-28T07:19:41.012Z,48.13
2018-04-28T07:20:41.255Z,49.12
2018-04-28T07:21:41.507Z,48.33
2018-04-28T07:22:41.751Z,47.75
2018-04-28T07:23:41.971Z,48.25
2018-04-28T07:24:42.220Z,47.94
2018-04-28T07:25:42.463Z,47.75
2018-04-28T07:26:42.708Z,47.49
2018-04-28T07:27:42.949Z,47.01
2018-04-28T07:28:43.194Z,46.31
2018-04-28T07:29:43.438Z,47.15
2018-04-28T07:30:43.682Z,47.92
2018-04-28T07:31:43.924Z,48.11
2018-04-28T07:32:44.168Z,47.37
2018-04-28T07:33:44.413Z,46.81
2018-04-28T07:34:44.659Z,46.19
2018-04-28T07:35:44.901Z,44.68
2018-04-28T07:36:45.146Z,43.12
2018-04-28T07:37:45.393Z,42.16
2018-04-28T07:38:45.639Z,42.25
2018-04-28T07:39:45.884Z,41.99
2018-04-28T07:40:46.133Z,41.31
2018-04-28T07:41:46.376Z,41.22
2018-04-28T07:42:46.621Z,41.67
2018-04-28T07:43:46.866Z,43.29
2018-04-28T07:44:47.111Z,43.02
2018-04-28T07:45:47.361Z,42.54
2018-04-28T07:46:47.607Z,42.56
2018-04-28T07:47:47.851Z,40.93
2018-04-28T07:48:48.100Z,40.52
2018-04-28T07:49:48.338Z,40.91
2018-04-28T07:50:48.584Z,41.39
2018-04-28T07:51:48.830Z,41.29
2018-04-28T07:52:49.078Z,41.49
2018-04-28T07:53:49.324Z,40.91
2018-04-28T07:54:49.573Z,40.55
2018-04-28T07:55:49.825Z,40.83
2018-04-28T07:56:50.073Z,40.52
2018-04-28T07:57:50.312Z,40.73
2018-04-28T07:58:50.556Z,40.95
2018-04-28T07:59:50.804Z,40.45
2018-04-28T08:00:51.051Z,39.79
2018-04-28T08:01:51.297Z,39.49
2018-04-28T08:02:51.545Z,39.89
2018-04-28T08:03:51.790Z,39.33
2018-04-28T08:04:52.038Z,38.49
2018-04-28T08:05:52.283Z,38.85
2018-04-28T08:06:52.533Z,39.26
2018-04-28T08:07:52.776Z,39.04
2018-04-28T08:08:53.022Z,39.70
2018-04-28T08:09:53.272Z,39.72
2018-04-28T08:10:53.520Z,38.95
2018-04-28T08:11:53.769Z,37.04
2018-04-28T08:12:54.017Z,35.41
2018-04-28T08:13:54.264Z,36.56
2018-04-28T08:14:54.512Z,37.14
2018-04-28T08:15:54.761Z,37.52
2018-04-28T08:16:55.188Z,36.87
2018-04-28T08:17:55.438Z,36.47
2018-04-28T08:18:55.686Z,37.51
2018-04-28T08:19:55.934Z,38.37
2018-04-28T08:20:56.182Z,37.70
2018-04-28T08:21:56.429Z,38.54
2018-04-28T08:22:56.682Z,38.64
2018-04-28T08:23:56.935Z,37.68
2018-04-28T08:24:57.182Z,37.97
2018-04-28T08:25:57.429Z,38.53
2018-04-28T08:26:57.681Z,38.93
2018-04-28T08:27:57.928Z,38.95
2018-04-28T08:28:58.181Z,37.70
2018-04-28T08:29:58.424Z,37.81
2018-04-28T08:30:58.671Z,37.52
2018-04-28T08:31:58.918Z,36.31
2018-04-28T08:32:59.169Z,35.22
2018-04-28T08:33:59.413Z,35.24
2018-04-28T08:34:59.666Z,35.12
2018-04-28T08:35:59.917Z,35.31
2018-04-28T08:37:00.241Z,36.74
2018-04-28T08:38:00.424Z,37.51
2018-04-28T08:39:00.674Z,37.41
2018-04-28T08:40:00.940Z,35.12
2018-04-28T08:41:01.176Z,34.92
2018-04-28T08:42:01.427Z,36.85
2018-04-28T08:43:01.676Z,36.56
2018-04-28T08:44:01.924Z,36.00
2018-04-28T08:45:02.172Z,34.94
2018-04-28T08:46:02.425Z,34.86
2018-04-28T08:47:02.657Z,34.77
2018-04-28T08:48:02.909Z,35.17
2018-04-28T08:49:03.157Z,34.69
2018-04-28T08:50:03.406Z,33.81
2018-04-28T08:51:03.694Z,34.52
2018-04-28T08:52:03.905Z,33.55
2018-04-28T08:53:04.152Z,32.09
2018-04-28T08:54:04.401Z,31.72
2018-04-28T08:55:04.651Z,32.38
2018-04-28T08:56:04.902Z,32.86
2018-04-28T08:57:05.150Z,34.37
2018-04-28T08:58:05.401Z,34.86
2018-04-28T08:59:05.650Z,35.38
2018-04-28T09:00:05.901Z,35.27
2018-04-28T09:01:06.143Z,35.10
2018-04-28T09:02:06.399Z,33.97
2018-04-28T09:03:06.647Z,33.37
2018-04-28T09:04:06.895Z,34.03
2018-04-28T09:05:07.149Z,34.42
2018-04-28T09:06:07.411Z,34.40
2018-04-28T09:07:07.653Z,35.08
2018-04-28T09:08:07.910Z,35.58
2018-04-28T09:09:08.156Z,36.27
2018-04-28T09:10:08.401Z,35.11
2018-04-28T09:11:08.652Z,34.90
2018-04-28T09:12:08.901Z,34.90
2018-04-28T09:13:09.206Z,34.42
2018-04-28T09:14:09.394Z,33.76
2018-04-28T09:15:09.645Z,33.48
2018-04-28T09:16:09.899Z,33.09
2018-04-28T09:17:10.151Z,32.67
2018-04-28T09:18:10.404Z,31.70
2018-04-28T09:19:10.656Z,31.62
2018-04-28T09:20:10.907Z,31.72
2018-04-28T09:21:11.161Z,31.63
2018-04-28T09:22:11.412Z,30.55
2018-04-28T09:23:11.668Z,31.22
2018-04-28T09:24:11.920Z,31.70
2018-04-28T09:25:12.170Z,31.32
2018-04-28T09:26:12.431Z,31.96
2018-04-28T09:27:12.680Z,32.65
2018-04-28T09:28:12.933Z,31.49
2018-04-28T09:29:13.178Z,31.11
2018-04-28T09:30:13.428Z,30.35
2018-04-28T09:31:13.683Z,31.32
2018-04-28T09:32:13.927Z,30.76
2018-04-28T09:33:14.183Z,31.72
2018-04-28T09:34:14.431Z,32.46
2018-04-28T09:35:14.686Z,32.36
2018-04-28T09:36:14.951Z,32.46
2018-04-28T09:37:15.183Z,32.68
2018-04-28T09:38:15.438Z,31.93
2018-04-28T09:39:15.681Z,32.60
2018-04-28T09:40:15.934Z,31.63
2018-04-28T09:41:16.184Z,31.73
2018-04-28T09:42:16.441Z,31.14
2018-04-28T09:43:16.686Z,32.94
2018-04-28T09:44:16.945Z,32.76
2018-04-28T09:45:17.188Z,34.43
2018-04-28T09:46:17.455Z,36.10
2018-04-28T09:47:17.697Z,33.84
2018-04-28T09:48:17.934Z,33.50
2018-04-28T09:49:18.182Z,33.69
2018-04-28T09:50:18.430Z,33.44
2018-04-28T09:51:18.675Z,33.15
2018-04-28T09:52:18.931Z,33.25
2018-04-28T09:53:19.173Z,32.38
2018-04-28T09:54:19.427Z,32.67
2018-04-28T09:55:19.686Z,32.76
2018-04-28T09:56:19.932Z,31.33
2018-04-28T09:57:20.186Z,31.54
2018-04-28T09:58:20.439Z,31.83
2018-04-28T09:59:20.694Z,32.06
2018-04-28T10:00:20.948Z,30.90
2018-04-28T10:01:21.200Z,30.77
2018-04-28T10:02:21.451Z,31.99
2018-04-28T10:03:21.702Z,32.57
2018-04-28T10:04:21.956Z,31.43
2018-04-28T10:05:22.208Z,31.35
2018-04-28T10:06:22.467Z,30.66
2018-04-28T10:07:22.726Z,30.66
2018-04-28T10:08:22.953Z,31.41
2018-04-28T10:09:23.205Z,32.36
2018-04-28T10:10:23.458Z,32.75
2018-04-28T10:11:23.721Z,33.03
2018-04-28T10:12:23.959Z,31.57
2018-04-28T10:13:24.209Z,31.21
2018-04-28T10:14:24.456Z,31.41
2018-04-28T10:15:24.709Z,31.49
2018-04-28T10:16:24.963Z,30.43
2018-04-28T10:17:25.216Z,29.94
2018-04-28T10:18:25.465Z,31.22
2018-04-28T10:19:25.721Z,30.45
2018-04-28T10:20:26.098Z,29.50
2018-04-28T10:21:26.223Z,30.46
2018-04-28T10:22:26.469Z,29.39
2018-04-28T10:23:26.731Z,28.53
2018-04-28T10:24:26.978Z,29.20
2018-04-28T10:25:28.149Z,29.50
2018-04-28T10:26:27.468Z,28.94
2018-04-28T10:27:27.724Z,29.71
2018-04-28T10:28:27.976Z,29.06
2018-04-28T10:29:28.232Z,27.81
2018-04-28T10:30:28.468Z,27.80
2018-04-28T10:31:28.722Z,28.29
2018-04-28T10:32:28.973Z,28.56
2018-04-28T10:33:29.231Z,29.03
2018-04-28T10:34:29.482Z,29.52
2018-04-28T10:35:29.726Z,29.42
2018-04-28T10:36:29.984Z,30.00
2018-04-28T10:37:30.228Z,28.83
2018-04-28T10:38:30.485Z,30.26
2018-04-28T10:39:30.734Z,31.41
2018-04-28T10:40:30.985Z,30.46
2018-04-28T10:41:31.239Z,30.18
2018-04-28T10:42:31.491Z,29.72
2018-04-28T10:43:31.744Z,28.78
2018-04-28T10:44:31.994Z,27.39
2018-04-28T10:45:32.253Z,28.53
2018-04-28T10:46:32.494Z,28.91
2018-04-28T10:47:32.807Z,27.85
2018-04-28T10:48:32.995Z,27.57
2018-04-28T10:49:33.260Z,26.51
2018-04-28T10:50:33.506Z,26.42
2018-04-28T10:51:33.757Z,26.90
2018-04-28T10:52:34.014Z,27.20
2018-04-28T10:53:34.312Z,26.34
2018-04-28T10:54:34.508Z,26.82
2018-04-28T10:55:34.763Z,28.55
2018-04-28T10:56:34.998Z,27.80
2018-04-28T10:57:35.250Z,27.89
2018-04-28T10:58:35.499Z,27.31
2018-04-28T10:59:35.750Z,27.11
2018-04-28T11:00:36.006Z,25.37
2018-04-28T11:01:36.271Z,26.03
2018-04-28T11:02:36.503Z,26.14
2018-04-28T11:03:36.758Z,25.92
2018-04-28T11:04:37.001Z,26.57
2018-04-28T11:05:37.311Z,28.33
2018-04-28T11:06:37.507Z,27.67
2018-04-28T11:07:37.760Z,27.02
2018-04-28T11:08:38.013Z,25.68
2018-04-28T11:09:38.269Z,26.26
2018-04-28T11:10:38.519Z,25.09
2018-04-28T11:11:38.772Z,26.53
2018-04-28T11:12:39.022Z,26.44
2018-04-28T11:13:39.275Z,26.07
2018-04-28T11:14:39.524Z,24.55
2018-04-28T11:15:39.764Z,24.63
2018-04-28T11:16:40.021Z,24.72
2018-04-28T11:17:40.277Z,24.52
2018-04-28T11:18:40.529Z,24.81
2018-04-28T11:19:40.786Z,24.40
2018-04-28T11:20:41.033Z,25.08
2018-04-28T11:21:41.301Z,23.33
2018-04-28T11:22:41.541Z,25.18
2018-04-28T11:23:41.784Z,24.98
2018-04-28T11:24:42.040Z,24.96
2018-04-28T11:25:42.322Z,26.68
2018-04-28T11:26:42.550Z,26.42
2018-04-28T11:27:42.802Z,26.62
2018-04-28T11:28:43.051Z,26.06
2018-04-28T11:29:43.303Z,24.81
2018-04-28T11:30:43.558Z,23.76
2018-04-28T11:31:43.819Z,23.75
2018-04-28T11:32:44.068Z,24.30
2018-04-28T11:33:44.353Z,25.57
2018-04-28T11:34:44.578Z,23.54
2018-04-28T11:35:44.829Z,23.75
2018-04-28T11:36:45.087Z,23.35
2018-04-28T11:37:45.337Z,24.33
2018-04-28T11:38:45.585Z,25.09
2018-04-28T11:39:45.846Z,24.14
2018-04-28T11:40:46.102Z,23.83
2018-04-28T11:41:46.353Z,23.65
2018-04-28T11:42:46.605Z,23.66
2018-04-28T11:43:46.853Z,23.76
2018-04-28T11:44:47.120Z,23.87
2018-04-28T11:45:47.374Z,23.94
2018-04-28T11:46:47.625Z,24.80
2018-04-28T11:47:47.891Z,26.04
2018-04-28T11:48:48.132Z,27.67
2018-04-28T11:49:48.385Z,27.72
2018-04-28T11:50:48.638Z,27.92
2018-04-28T11:51:48.894Z,28.48
2018-04-28T11:52:49.157Z,28.47
2018-04-28T11:53:49.406Z,28.78
2018-04-28T11:54:49.659Z,27.11
2018-04-28T11:55:49.909Z,25.12
2018-04-28T11:56:50.161Z,24.72
2018-04-28T11:57:50.416Z,25.86
2018-04-28T11:58:50.686Z,26.53
2018-04-28T11:59:50.918Z,26.70
2018-04-28T12:00:51.177Z,25.63
2018-04-28T12:01:51.416Z,26.21
2018-04-28T12:02:51.665Z,26.42
2018-04-28T12:03:51.919Z,26.25
2018-04-28T12:04:52.175Z,25.39
2018-04-28T12:05:52.470Z,25.02
2018-04-28T12:06:52.675Z,24.84
2018-04-28T12:07:52.930Z,24.99
2018-04-28T12:08:53.185Z,26.43
2018-04-28T12:09:53.445Z,27.67
2018-04-28T12:10:53.678Z,27.83
2018-04-28T12:11:53.927Z,27.64
2018-04-28T12:12:54.193Z,28.31
2018-04-28T12:13:54.439Z,26.79
2018-04-28T12:14:54.692Z,25.67
2018-04-28T12:15:54.943Z,24.80
2018-04-28T12:16:55.195Z,24.99
2018-04-28T12:17:55.449Z,24.98
2018-04-28T12:18:55.704Z,25.74
2018-04-28T12:19:55.955Z,25.73
2018-04-28T12:20:56.205Z,26.50
2018-04-28T12:21:56.454Z,24.86
2018-04-28T12:22:56.707Z,25.13
2018-04-28T12:23:56.958Z,25.92
2018-04-28T12:24:57.215Z,26.50
2018-04-28T12:25:57.461Z,27.19
2018-04-28T12:26:57.714Z,26.17
2018-04-28T12:27:57.965Z,24.15
2018-04-28T12:28:58.217Z,22.33
2018-04-28T12:29:58.508Z,22.03
2018-04-28T12:30:58.719Z,21.86
2018-04-28T12:31:58.972Z,22.14
2018-04-28T12:32:59.224Z,22.91
2018-04-28T12:33:59.470Z,21.92
2018-04-28T12:34:59.737Z,23.46
2018-04-28T12:36:00.009Z,24.90
2018-04-28T12:37:00.236Z,24.11
2018-04-28T12:38:00.480Z,24.41
2018-04-28T12:39:00.734Z,23.65
2018-04-28T12:40:00.981Z,22.12
2018-04-28T12:41:01.237Z,21.73
2018-04-28T12:42:01.488Z,21.15
2018-04-28T12:43:01.740Z,22.19
2018-04-28T12:44:01.993Z,24.49
2018-04-28T12:45:02.251Z,25.05
2018-04-28T12:46:02.503Z,25.92
2018-04-28T12:47:02.750Z,26.33
2018-04-28T12:48:03.005Z,24.88
2018-04-28T12:49:03.261Z,25.35
2018-04-28T12:50:03.510Z,26.64
2018-04-28T12:51:03.764Z,25.89
2018-04-28T12:52:04.011Z,25.02
2018-04-28T12:53:04.260Z,24.74
2018-04-28T12:54:04.511Z,25.39
2018-04-28T12:55:04.763Z,26.22
2018-04-28T12:56:05.008Z,26.55